sensor_id;sensor_type;location;lat;lon;timestamp;P1;durP1;ratioP1;P2;durP2;ratioP2
5696;SDS011;2873;50.966;7.210;2022-10-04T00:00:24;12.80;;;7.50;;
5696;SDS011;2873;50.966;7.210;2022-10-04T00:02:53;12.00;;;8.10;;
5696;SDS011;2873;50.966;7.210;2022-10-04T00:05:26;11.70;;;7.20;;
5696;SDS011;2873;50.966;7.210;2022-10-04T00:07:54;12.60;;;8.00;;
5696;SDS011;2873;50.966;7.210;2022-10-04T00:10:39;11.23;;;7.40;;
5696;SDS011;2873;50.966;7.210;2022-10-04T00:13:05;14.10;;;7.85;;
5696;SDS011;2873;50.966;7.210;2022-10-04T00:15:39;11.82;;;8.70;;
5696;SDS011;2873;50.966;7.210;2022-10-04T00:21:04;18.20;;;9.05;;
5696;SDS011;2873;50.966;7.210;2022-10-04T00:26:03;16.30;;;9.32;;
5696;SDS011;2873;50.966;7.210;2022-10-04T00:33:39;13.95;;;8.13;;
5696;SDS011;2873;50.966;7.210;2022-10-04T00:43:59;14.70;;;7.60;;
5696;SDS011;2873;50.966;7.210;2022-10-04T00:46:26;14.40;;;7.03;;
5696;SDS011;2873;50.966;7.210;2022-10-04T00:48:57;12.70;;;8.00;;
5696;SDS011;2873;50.966;7.210;2022-10-04T00:51:27;11.38;;;8.02;;
5696;SDS011;2873;50.966;7.210;2022-10-04T00:54:05;17.15;;;7.70;;
5696;SDS011;2873;50.966;7.210;2022-10-04T00:56:51;12.98;;;8.15;;
5696;SDS011;2873;50.966;7.210;2022-10-04T00:59:31;13.85;;;7.85;;
5696;SDS011;2873;50.966;7.210;2022-10-04T01:02:22;13.68;;;8.27;;
5696;SDS011;2873;50.966;7.210;2022-10-04T01:04:59;13.25;;;7.82;;
5696;SDS011;2873;50.966;7.210;2022-10-04T01:07:32;16.63;;;8.80;;
5696;SDS011;2873;50.966;7.210;2022-10-04T01:10:13;12.27;;;8.80;;
5696;SDS011;2873;50.966;7.210;2022-10-04T01:12:56;12.73;;;9.00;;
5696;SDS011;2873;50.966;7.210;2022-10-04T01:15:37;14.73;;;8.60;;
5696;SDS011;2873;50.966;7.210;2022-10-04T01:20:40;13.18;;;8.68;;
5696;SDS011;2873;50.966;7.210;2022-10-04T01:25:58;12.40;;;8.70;;
5696;SDS011;2873;50.966;7.210;2022-10-04T01:28:25;12.05;;;8.90;;
5696;SDS011;2873;50.966;7.210;2022-10-04T01:30:51;15.05;;;9.13;;
5696;SDS011;2873;50.966;7.210;2022-10-04T01:33:17;13.70;;;9.10;;
5696;SDS011;2873;50.966;7.210;2022-10-04T01:35:43;15.13;;;8.65;;
5696;SDS011;2873;50.966;7.210;2022-10-04T01:38:09;17.08;;;8.63;;
5696;SDS011;2873;50.966;7.210;2022-10-04T01:40:38;12.57;;;8.77;;
5696;SDS011;2873;50.966;7.210;2022-10-04T01:43:11;14.60;;;9.65;;
5696;SDS011;2873;50.966;7.210;2022-10-04T01:45:43;13.07;;;8.75;;
5696;SDS011;2873;50.966;7.210;2022-10-04T01:48:17;13.43;;;8.68;;
5696;SDS011;2873;50.966;7.210;2022-10-04T01:53:47;11.70;;;7.20;;
5696;SDS011;2873;50.966;7.210;2022-10-04T01:56:25;13.70;;;7.72;;
5696;SDS011;2873;50.966;7.210;2022-10-04T01:59:01;17.17;;;7.10;;
5696;SDS011;2873;50.966;7.210;2022-10-04T02:04:20;12.35;;;7.30;;
5696;SDS011;2873;50.966;7.210;2022-10-04T02:06:51;9.10;;;7.70;;
5696;SDS011;2873;50.966;7.210;2022-10-04T02:09:25;11.25;;;7.63;;
5696;SDS011;2873;50.966;7.210;2022-10-04T02:12:02;13.70;;;7.67;;
5696;SDS011;2873;50.966;7.210;2022-10-04T02:14:33;11.07;;;7.80;;
5696;SDS011;2873;50.966;7.210;2022-10-04T02:17:00;14.85;;;7.82;;
5696;SDS011;2873;50.966;7.210;2022-10-04T02:19:38;14.75;;;7.43;;
5696;SDS011;2873;50.966;7.210;2022-10-04T02:22:06;10.25;;;7.40;;
5696;SDS011;2873;50.966;7.210;2022-10-04T02:24:36;13.70;;;8.13;;
5696;SDS011;2873;50.966;7.210;2022-10-04T02:27:05;11.80;;;7.88;;
5696;SDS011;2873;50.966;7.210;2022-10-04T02:29:30;12.27;;;7.70;;
5696;SDS011;2873;50.966;7.210;2022-10-04T02:31:56;12.00;;;8.10;;
5696;SDS011;2873;50.966;7.210;2022-10-04T02:34:41;10.20;;;7.80;;
5696;SDS011;2873;50.966;7.210;2022-10-04T02:37:08;11.00;;;7.50;;
5696;SDS011;2873;50.966;7.210;2022-10-04T02:39:35;15.90;;;8.37;;
5696;SDS011;2873;50.966;7.210;2022-10-04T02:44:50;10.77;;;7.80;;
5696;SDS011;2873;50.966;7.210;2022-10-04T02:47:28;12.48;;;7.60;;
5696;SDS011;2873;50.966;7.210;2022-10-04T02:50:04;14.10;;;8.20;;
5696;SDS011;2873;50.966;7.210;2022-10-04T02:52:45;9.85;;;7.80;;
5696;SDS011;2873;50.966;7.210;2022-10-04T02:57:45;11.15;;;7.97;;
5696;SDS011;2873;50.966;7.210;2022-10-04T03:02:37;11.77;;;7.70;;
5696;SDS011;2873;50.966;7.210;2022-10-04T03:05:05;11.70;;;7.90;;
5696;SDS011;2873;50.966;7.210;2022-10-04T03:07:34;12.40;;;7.70;;
5696;SDS011;2873;50.966;7.210;2022-10-04T03:10:00;10.30;;;7.50;;
5696;SDS011;2873;50.966;7.210;2022-10-04T03:12:30;10.45;;;7.50;;
5696;SDS011;2873;50.966;7.210;2022-10-04T03:14:57;11.27;;;7.15;;
5696;SDS011;2873;50.966;7.210;2022-10-04T03:17:23;10.13;;;7.32;;
5696;SDS011;2873;50.966;7.210;2022-10-04T03:19:49;11.80;;;7.20;;
5696;SDS011;2873;50.966;7.210;2022-10-04T03:22:15;14.48;;;7.55;;
5696;SDS011;2873;50.966;7.210;2022-10-04T03:27:14;15.75;;;7.13;;
5696;SDS011;2873;50.966;7.210;2022-10-04T03:29:44;12.07;;;7.32;;
5696;SDS011;2873;50.966;7.210;2022-10-04T03:32:13;9.93;;;7.40;;
5696;SDS011;2873;50.966;7.210;2022-10-04T03:34:41;10.38;;;7.28;;
5696;SDS011;2873;50.966;7.210;2022-10-04T03:37:16;12.00;;;7.63;;
5696;SDS011;2873;50.966;7.210;2022-10-04T03:39:45;11.15;;;7.72;;
5696;SDS011;2873;50.966;7.210;2022-10-04T03:42:18;11.48;;;7.57;;
5696;SDS011;2873;50.966;7.210;2022-10-04T03:44:50;13.90;;;7.10;;
5696;SDS011;2873;50.966;7.210;2022-10-04T03:47:31;8.65;;;7.28;;
5696;SDS011;2873;50.966;7.210;2022-10-04T03:50:01;10.35;;;7.70;;
5696;SDS011;2873;50.966;7.210;2022-10-04T03:52:40;11.75;;;8.30;;
5696;SDS011;2873;50.966;7.210;2022-10-04T03:55:38;14.13;;;8.80;;
5696;SDS011;2873;50.966;7.210;2022-10-04T03:58:08;11.75;;;8.43;;
5696;SDS011;2873;50.966;7.210;2022-10-04T04:00:36;11.70;;;8.10;;
5696;SDS011;2873;50.966;7.210;2022-10-04T04:03:07;11.80;;;8.38;;
5696;SDS011;2873;50.966;7.210;2022-10-04T04:05:41;15.73;;;8.52;;
5696;SDS011;2873;50.966;7.210;2022-10-04T04:08:13;15.52;;;7.78;;
5696;SDS011;2873;50.966;7.210;2022-10-04T04:10:50;14.40;;;7.90;;
5696;SDS011;2873;50.966;7.210;2022-10-04T04:13:23;15.90;;;7.80;;
5696;SDS011;2873;50.966;7.210;2022-10-04T04:15:56;14.03;;;9.13;;
5696;SDS011;2873;50.966;7.210;2022-10-04T04:18:27;12.15;;;8.57;;
5696;SDS011;2873;50.966;7.210;2022-10-04T04:20:55;13.13;;;8.63;;
5696;SDS011;2873;50.966;7.210;2022-10-04T04:23:25;14.73;;;9.13;;
5696;SDS011;2873;50.966;7.210;2022-10-04T04:25:57;14.98;;;8.43;;
5696;SDS011;2873;50.966;7.210;2022-10-04T04:28:49;15.77;;;9.15;;
5696;SDS011;2873;50.966;7.210;2022-10-04T04:31:19;14.45;;;8.30;;
5696;SDS011;2873;50.966;7.210;2022-10-04T04:34:04;13.38;;;8.20;;
5696;SDS011;2873;50.966;7.210;2022-10-04T04:36:58;11.77;;;8.40;;
5696;SDS011;2873;50.966;7.210;2022-10-04T04:39:25;15.02;;;8.00;;
5696;SDS011;2873;50.966;7.210;2022-10-04T04:44:56;11.90;;;8.10;;
5696;SDS011;2873;50.966;7.210;2022-10-04T04:47:29;10.80;;;8.05;;
5696;SDS011;2873;50.966;7.210;2022-10-04T04:50:11;10.27;;;8.77;;
5696;SDS011;2873;50.966;7.210;2022-10-04T04:52:42;12.80;;;8.73;;
5696;SDS011;2873;50.966;7.210;2022-10-04T04:55:15;12.50;;;8.80;;
5696;SDS011;2873;50.966;7.210;2022-10-04T04:57:53;21.63;;;9.73;;
5696;SDS011;2873;50.966;7.210;2022-10-04T05:00:28;15.52;;;8.57;;
5696;SDS011;2873;50.966;7.210;2022-10-04T05:02:57;12.80;;;8.45;;
5696;SDS011;2873;50.966;7.210;2022-10-04T05:05:34;16.40;;;8.60;;
5696;SDS011;2873;50.966;7.210;2022-10-04T05:10:46;16.35;;;8.60;;
5696;SDS011;2873;50.966;7.210;2022-10-04T05:13:13;11.38;;;8.48;;
5696;SDS011;2873;50.966;7.210;2022-10-04T05:15:41;13.10;;;8.32;;
5696;SDS011;2873;50.966;7.210;2022-10-04T05:18:20;19.57;;;8.90;;
5696;SDS011;2873;50.966;7.210;2022-10-04T05:20:47;13.80;;;8.80;;
5696;SDS011;2873;50.966;7.210;2022-10-04T05:23:16;15.68;;;8.75;;
5696;SDS011;2873;50.966;7.210;2022-10-04T05:25:42;13.23;;;8.27;;
5696;SDS011;2873;50.966;7.210;2022-10-04T05:28:10;13.20;;;8.38;;
5696;SDS011;2873;50.966;7.210;2022-10-04T05:33:17;14.52;;;8.52;;
5696;SDS011;2873;50.966;7.210;2022-10-04T05:41:08;12.02;;;8.63;;
5696;SDS011;2873;50.966;7.210;2022-10-04T05:43:44;10.75;;;7.82;;
5696;SDS011;2873;50.966;7.210;2022-10-04T05:49:04;16.10;;;7.97;;
5696;SDS011;2873;50.966;7.210;2022-10-04T05:51:47;11.93;;;7.40;;
5696;SDS011;2873;50.966;7.210;2022-10-04T05:54:25;11.07;;;8.00;;
5696;SDS011;2873;50.966;7.210;2022-10-04T06:00:12;17.35;;;8.70;;
5696;SDS011;2873;50.966;7.210;2022-10-04T06:05:47;13.30;;;8.20;;
5696;SDS011;2873;50.966;7.210;2022-10-04T06:13:54;12.40;;;8.18;;
5696;SDS011;2873;50.966;7.210;2022-10-04T06:22:28;12.85;;;8.57;;
5696;SDS011;2873;50.966;7.210;2022-10-04T06:27:33;12.55;;;8.32;;
5696;SDS011;2873;50.966;7.210;2022-10-04T06:30:08;13.85;;;8.52;;
5696;SDS011;2873;50.966;7.210;2022-10-04T06:33:00;12.30;;;8.57;;
5696;SDS011;2873;50.966;7.210;2022-10-04T06:38:59;13.27;;;7.70;;
5696;SDS011;2873;50.966;7.210;2022-10-04T06:41:40;13.85;;;7.70;;
5696;SDS011;2873;50.966;7.210;2022-10-04T06:46:59;12.35;;;8.80;;
5696;SDS011;2873;50.966;7.210;2022-10-04T06:49:44;13.23;;;8.40;;
5696;SDS011;2873;50.966;7.210;2022-10-04T07:01:27;14.50;;;9.60;;
5696;SDS011;2873;50.966;7.210;2022-10-04T07:06:46;13.60;;;8.60;;
5696;SDS011;2873;50.966;7.210;2022-10-04T07:09:51;15.20;;;9.05;;
5696;SDS011;2873;50.966;7.210;2022-10-04T07:12:23;12.63;;;8.30;;
5696;SDS011;2873;50.966;7.210;2022-10-04T07:14:51;14.67;;;8.47;;
5696;SDS011;2873;50.966;7.210;2022-10-04T07:17:25;14.23;;;8.57;;
5696;SDS011;2873;50.966;7.210;2022-10-04T07:19:56;11.80;;;8.07;;
5696;SDS011;2873;50.966;7.210;2022-10-04T07:22:41;13.70;;;8.52;;
5696;SDS011;2873;50.966;7.210;2022-10-04T07:25:12;13.23;;;8.53;;
5696;SDS011;2873;50.966;7.210;2022-10-04T07:27:49;12.57;;;8.25;;
5696;SDS011;2873;50.966;7.210;2022-10-04T07:30:45;10.68;;;7.22;;
5696;SDS011;2873;50.966;7.210;2022-10-04T07:33:34;9.57;;;7.15;;
5696;SDS011;2873;50.966;7.210;2022-10-04T07:36:12;13.73;;;7.63;;
5696;SDS011;2873;50.966;7.210;2022-10-04T07:38:45;11.25;;;7.70;;
5696;SDS011;2873;50.966;7.210;2022-10-04T07:44:06;11.23;;;7.32;;
5696;SDS011;2873;50.966;7.210;2022-10-04T07:46:48;11.65;;;7.40;;
5696;SDS011;2873;50.966;7.210;2022-10-04T07:49:19;11.32;;;7.55;;
5696;SDS011;2873;50.966;7.210;2022-10-04T07:57:37;8.10;;;6.68;;
5696;SDS011;2873;50.966;7.210;2022-10-04T08:00:21;10.50;;;7.05;;
5696;SDS011;2873;50.966;7.210;2022-10-04T08:03:09;10.80;;;6.63;;
5696;SDS011;2873;50.966;7.210;2022-10-04T08:06:08;14.13;;;6.28;;
5696;SDS011;2873;50.966;7.210;2022-10-04T08:17:21;12.13;;;6.78;;
5696;SDS011;2873;50.966;7.210;2022-10-04T08:40:03;11.20;;;5.80;;
5696;SDS011;2873;50.966;7.210;2022-10-04T08:48:28;11.30;;;6.10;;
5696;SDS011;2873;50.966;7.210;2022-10-04T08:53:50;15.98;;;6.47;;
5696;SDS011;2873;50.966;7.210;2022-10-04T08:57:01;9.75;;;5.80;;
5696;SDS011;2873;50.966;7.210;2022-10-04T09:05:12;8.55;;;5.80;;
5696;SDS011;2873;50.966;7.210;2022-10-04T09:16:45;9.80;;;5.90;;
5696;SDS011;2873;50.966;7.210;2022-10-04T09:19:22;6.00;;;5.40;;
5696;SDS011;2873;50.966;7.210;2022-10-04T09:22:17;7.47;;;4.78;;
5696;SDS011;2873;50.966;7.210;2022-10-04T09:25:07;7.15;;;4.65;;
5696;SDS011;2873;50.966;7.210;2022-10-04T09:31:12;8.03;;;5.00;;
5696;SDS011;2873;50.966;7.210;2022-10-04T09:36:55;5.47;;;4.10;;
5696;SDS011;2873;50.966;7.210;2022-10-04T09:39:31;4.55;;;4.13;;
5696;SDS011;2873;50.966;7.210;2022-10-04T09:47:31;7.15;;;3.75;;
5696;SDS011;2873;50.966;7.210;2022-10-04T09:50:27;5.63;;;4.20;;
5696;SDS011;2873;50.966;7.210;2022-10-04T09:58:41;11.98;;;3.90;;
5696;SDS011;2873;50.966;7.210;2022-10-04T10:01:41;5.43;;;3.50;;
5696;SDS011;2873;50.966;7.210;2022-10-04T10:10:20;4.00;;;3.60;;
5696;SDS011;2873;50.966;7.210;2022-10-04T10:16:11;7.05;;;3.55;;
5696;SDS011;2873;50.966;7.210;2022-10-04T10:21:15;6.05;;;3.65;;
5696;SDS011;2873;50.966;7.210;2022-10-04T10:26:32;5.07;;;3.80;;
5696;SDS011;2873;50.966;7.210;2022-10-04T10:39:59;4.27;;;3.30;;
5696;SDS011;2873;50.966;7.210;2022-10-04T10:42:54;5.57;;;2.90;;
5696;SDS011;2873;50.966;7.210;2022-10-04T10:50:59;5.00;;;2.93;;
5696;SDS011;2873;50.966;7.210;2022-10-04T10:59:10;4.63;;;2.60;;
5696;SDS011;2873;50.966;7.210;2022-10-04T11:10:52;2.80;;;2.40;;
5696;SDS011;2873;50.966;7.210;2022-10-04T11:36:04;3.50;;;2.72;;
5696;SDS011;2873;50.966;7.210;2022-10-04T12:06:47;2.90;;;2.30;;
5696;SDS011;2873;50.966;7.210;2022-10-04T12:09:27;3.58;;;2.33;;
5696;SDS011;2873;50.966;7.210;2022-10-04T12:12:30;5.10;;;2.10;;
5696;SDS011;2873;50.966;7.210;2022-10-04T12:23:51;3.80;;;2.40;;
5696;SDS011;2873;50.966;7.210;2022-10-04T12:37:37;1.90;;;1.80;;
5696;SDS011;2873;50.966;7.210;2022-10-04T12:46:02;2.45;;;2.00;;
5696;SDS011;2873;50.966;7.210;2022-10-04T13:02:13;4.72;;;2.30;;
5696;SDS011;2873;50.966;7.210;2022-10-04T13:04:51;4.00;;;2.20;;
5696;SDS011;2873;50.966;7.210;2022-10-04T13:10:30;2.10;;;1.90;;
5696;SDS011;2873;50.966;7.210;2022-10-04T13:13:22;2.85;;;2.20;;
5696;SDS011;2873;50.966;7.210;2022-10-04T13:30:15;2.55;;;2.00;;
5696;SDS011;2873;50.966;7.210;2022-10-04T13:35:45;4.63;;;2.20;;
5696;SDS011;2873;50.966;7.210;2022-10-04T13:38:25;3.47;;;1.80;;
5696;SDS011;2873;50.966;7.210;2022-10-04T13:41:17;2.50;;;2.30;;
5696;SDS011;2873;50.966;7.210;2022-10-04T13:50:01;2.80;;;2.10;;
5696;SDS011;2873;50.966;7.210;2022-10-04T13:55:51;2.70;;;2.20;;
5696;SDS011;2873;50.966;7.210;2022-10-04T14:07:29;2.90;;;2.10;;
5696;SDS011;2873;50.966;7.210;2022-10-04T14:18:23;3.88;;;2.10;;
5696;SDS011;2873;50.966;7.210;2022-10-04T14:21:13;3.95;;;2.50;;
5696;SDS011;2873;50.966;7.210;2022-10-04T14:26:47;4.18;;;2.60;;
5696;SDS011;2873;50.966;7.210;2022-10-04T14:29:39;3.70;;;2.60;;
5696;SDS011;2873;50.966;7.210;2022-10-04T14:35:11;2.60;;;2.40;;
5696;SDS011;2873;50.966;7.210;2022-10-04T14:43:17;5.93;;;3.00;;
5696;SDS011;2873;50.966;7.210;2022-10-04T14:51:35;4.75;;;2.90;;
5696;SDS011;2873;50.966;7.210;2022-10-04T14:54:33;4.10;;;2.58;;
5696;SDS011;2873;50.966;7.210;2022-10-04T15:02:43;5.40;;;2.60;;
5696;SDS011;2873;50.966;7.210;2022-10-04T15:05:41;5.72;;;3.15;;
5696;SDS011;2873;50.966;7.210;2022-10-04T15:10:58;5.30;;;3.08;;
5696;SDS011;2873;50.966;7.210;2022-10-04T15:13:35;4.55;;;2.60;;
5696;SDS011;2873;50.966;7.210;2022-10-04T15:21:52;4.82;;;2.63;;
5696;SDS011;2873;50.966;7.210;2022-10-04T15:38:30;5.53;;;3.10;;
5696;SDS011;2873;50.966;7.210;2022-10-04T15:41:23;4.18;;;3.00;;
5696;SDS011;2873;50.966;7.210;2022-10-04T15:44:41;4.38;;;3.30;;
5696;SDS011;2873;50.966;7.210;2022-10-04T15:47:35;4.00;;;3.22;;
5696;SDS011;2873;50.966;7.210;2022-10-04T15:56:55;7.70;;;3.60;;
5696;SDS011;2873;50.966;7.210;2022-10-04T15:59:48;7.00;;;3.55;;
5696;SDS011;2873;50.966;7.210;2022-10-04T16:08:24;6.93;;;2.90;;
5696;SDS011;2873;50.966;7.210;2022-10-04T16:21:36;3.03;;;2.73;;
5696;SDS011;2873;50.966;7.210;2022-10-04T16:35:32;5.82;;;3.55;;
5696;SDS011;2873;50.966;7.210;2022-10-04T16:38:14;6.65;;;3.45;;
5696;SDS011;2873;50.966;7.210;2022-10-04T16:40:55;7.22;;;3.85;;
5696;SDS011;2873;50.966;7.210;2022-10-04T16:43:36;5.75;;;3.30;;
5696;SDS011;2873;50.966;7.210;2022-10-04T16:46:17;5.10;;;3.78;;
5696;SDS011;2873;50.966;7.210;2022-10-04T16:49:01;7.60;;;3.60;;
5696;SDS011;2873;50.966;7.210;2022-10-04T16:51:49;4.05;;;3.65;;
5696;SDS011;2873;50.966;7.210;2022-10-04T16:54:41;9.88;;;3.72;;
5696;SDS011;2873;50.966;7.210;2022-10-04T16:57:12;4.75;;;3.40;;
5696;SDS011;2873;50.966;7.210;2022-10-04T16:59:48;6.00;;;4.00;;
5696;SDS011;2873;50.966;7.210;2022-10-04T17:08:04;4.80;;;4.30;;
5696;SDS011;2873;50.966;7.210;2022-10-04T17:13:37;6.73;;;4.90;;
5696;SDS011;2873;50.966;7.210;2022-10-04T17:16:23;6.60;;;4.82;;
5696;SDS011;2873;50.966;7.210;2022-10-04T17:19:15;5.38;;;4.18;;
5696;SDS011;2873;50.966;7.210;2022-10-04T17:38:01;9.00;;;5.18;;
5696;SDS011;2873;50.966;7.210;2022-10-04T17:43:20;6.13;;;4.00;;
5696;SDS011;2873;50.966;7.210;2022-10-04T17:46:11;6.13;;;4.00;;
5696;SDS011;2873;50.966;7.210;2022-10-04T17:49:03;11.32;;;4.80;;
5696;SDS011;2873;50.966;7.210;2022-10-04T17:52:01;5.55;;;4.20;;
5696;SDS011;2873;50.966;7.210;2022-10-04T17:54:54;8.13;;;4.55;;
5696;SDS011;2873;50.966;7.210;2022-10-04T17:57:50;5.47;;;4.15;;
5696;SDS011;2873;50.966;7.210;2022-10-04T18:00:24;5.55;;;4.50;;
5696;SDS011;2873;50.966;7.210;2022-10-04T18:08:09;8.27;;;5.40;;
5696;SDS011;2873;50.966;7.210;2022-10-04T18:10:52;8.57;;;3.90;;
5696;SDS011;2873;50.966;7.210;2022-10-04T18:13:26;8.52;;;4.65;;
5696;SDS011;2873;50.966;7.210;2022-10-04T18:22:03;6.40;;;3.92;;
5696;SDS011;2873;50.966;7.210;2022-10-04T18:24:39;4.30;;;3.90;;
5696;SDS011;2873;50.966;7.210;2022-10-04T18:32:38;6.68;;;4.05;;
5696;SDS011;2873;50.966;7.210;2022-10-04T18:35:21;6.90;;;4.70;;
5696;SDS011;2873;50.966;7.210;2022-10-04T18:37:49;9.40;;;4.70;;
5696;SDS011;2873;50.966;7.210;2022-10-04T18:40:17;4.40;;;4.00;;
5696;SDS011;2873;50.966;7.210;2022-10-04T18:42:49;6.53;;;4.10;;
5696;SDS011;2873;50.966;7.210;2022-10-04T18:45:26;8.25;;;4.30;;
5696;SDS011;2873;50.966;7.210;2022-10-04T18:47:53;4.97;;;3.40;;
5696;SDS011;2873;50.966;7.210;2022-10-04T18:50:34;6.03;;;4.03;;
5696;SDS011;2873;50.966;7.210;2022-10-04T19:04:07;6.20;;;3.90;;
5696;SDS011;2873;50.966;7.210;2022-10-04T19:06:50;3.78;;;3.47;;
5696;SDS011;2873;50.966;7.210;2022-10-04T19:09:24;7.43;;;3.88;;
5696;SDS011;2873;50.966;7.210;2022-10-04T19:12:06;5.20;;;4.35;;
5696;SDS011;2873;50.966;7.210;2022-10-04T19:14:49;5.40;;;3.63;;
5696;SDS011;2873;50.966;7.210;2022-10-04T19:20:15;4.18;;;3.60;;
5696;SDS011;2873;50.966;7.210;2022-10-04T19:28:19;4.50;;;3.60;;
5696;SDS011;2873;50.966;7.210;2022-10-04T19:33:49;4.38;;;3.10;;
5696;SDS011;2873;50.966;7.210;2022-10-04T19:36:24;4.07;;;3.60;;
5696;SDS011;2873;50.966;7.210;2022-10-04T19:41:59;3.80;;;3.50;;
5696;SDS011;2873;50.966;7.210;2022-10-04T19:47:23;7.18;;;4.20;;
5696;SDS011;2873;50.966;7.210;2022-10-04T19:53:05;7.00;;;3.95;;
5696;SDS011;2873;50.966;7.210;2022-10-04T20:01:00;11.63;;;4.50;;
5696;SDS011;2873;50.966;7.210;2022-10-04T20:03:26;4.75;;;4.10;;
5696;SDS011;2873;50.966;7.210;2022-10-04T20:05:53;7.43;;;4.40;;
5696;SDS011;2873;50.966;7.210;2022-10-04T20:11:13;6.90;;;4.10;;
5696;SDS011;2873;50.966;7.210;2022-10-04T20:21:52;6.30;;;3.90;;
5696;SDS011;2873;50.966;7.210;2022-10-04T20:27:04;11.40;;;4.80;;
5696;SDS011;2873;50.966;7.210;2022-10-04T20:32:05;7.25;;;4.40;;
5696;SDS011;2873;50.966;7.210;2022-10-04T20:37:02;7.55;;;4.40;;
5696;SDS011;2873;50.966;7.210;2022-10-04T20:42:10;4.60;;;4.10;;
5696;SDS011;2873;50.966;7.210;2022-10-04T20:44:53;7.90;;;4.53;;
5696;SDS011;2873;50.966;7.210;2022-10-04T20:47:29;7.50;;;4.53;;
5696;SDS011;2873;50.966;7.210;2022-10-04T20:49:59;5.15;;;4.60;;
5696;SDS011;2873;50.966;7.210;2022-10-04T20:52:30;6.30;;;4.18;;
5696;SDS011;2873;50.966;7.210;2022-10-04T20:55:00;5.60;;;4.10;;
5696;SDS011;2873;50.966;7.210;2022-10-04T20:57:36;5.60;;;4.55;;
5696;SDS011;2873;50.966;7.210;2022-10-04T21:00:03;5.20;;;4.32;;
5696;SDS011;2873;50.966;7.210;2022-10-04T21:02:29;5.97;;;4.30;;
5696;SDS011;2873;50.966;7.210;2022-10-04T21:05:10;7.10;;;4.80;;
5696;SDS011;2873;50.966;7.210;2022-10-04T21:07:40;8.60;;;4.50;;
5696;SDS011;2873;50.966;7.210;2022-10-04T21:10:06;6.70;;;4.10;;
5696;SDS011;2873;50.966;7.210;2022-10-04T21:12:41;7.40;;;4.57;;
5696;SDS011;2873;50.966;7.210;2022-10-04T21:20:44;6.60;;;4.30;;
5696;SDS011;2873;50.966;7.210;2022-10-04T21:23:31;7.85;;;4.60;;
5696;SDS011;2873;50.966;7.210;2022-10-04T21:28:46;7.50;;;4.50;;
5696;SDS011;2873;50.966;7.210;2022-10-04T21:31:16;5.53;;;4.28;;
5696;SDS011;2873;50.966;7.210;2022-10-04T21:33:42;7.20;;;5.00;;
5696;SDS011;2873;50.966;7.210;2022-10-04T21:36:07;6.00;;;4.40;;
5696;SDS011;2873;50.966;7.210;2022-10-04T21:38:33;5.28;;;4.40;;
5696;SDS011;2873;50.966;7.210;2022-10-04T21:40:59;6.90;;;4.40;;
5696;SDS011;2873;50.966;7.210;2022-10-04T21:43:24;6.15;;;4.32;;
5696;SDS011;2873;50.966;7.210;2022-10-04T21:45:50;8.07;;;4.37;;
5696;SDS011;2873;50.966;7.210;2022-10-04T21:48:16;6.63;;;4.70;;
5696;SDS011;2873;50.966;7.210;2022-10-04T21:50:41;7.43;;;5.47;;
5696;SDS011;2873;50.966;7.210;2022-10-04T21:53:08;6.65;;;4.90;;
5696;SDS011;2873;50.966;7.210;2022-10-04T21:55:33;7.25;;;4.70;;
5696;SDS011;2873;50.966;7.210;2022-10-04T21:57:59;8.90;;;5.50;;
5696;SDS011;2873;50.966;7.210;2022-10-04T22:00:25;8.00;;;5.20;;
5696;SDS011;2873;50.966;7.210;2022-10-04T22:02:50;6.03;;;4.93;;
5696;SDS011;2873;50.966;7.210;2022-10-04T22:05:16;7.85;;;5.45;;
5696;SDS011;2873;50.966;7.210;2022-10-04T22:07:42;7.55;;;5.50;;
5696;SDS011;2873;50.966;7.210;2022-10-04T22:10:08;8.97;;;5.50;;
5696;SDS011;2873;50.966;7.210;2022-10-04T22:12:33;5.90;;;4.97;;
5696;SDS011;2873;50.966;7.210;2022-10-04T22:14:59;10.30;;;5.80;;
5696;SDS011;2873;50.966;7.210;2022-10-04T22:17:25;7.37;;;5.60;;
5696;SDS011;2873;50.966;7.210;2022-10-04T22:19:50;7.87;;;5.47;;
5696;SDS011;2873;50.966;7.210;2022-10-04T22:22:17;6.82;;;5.60;;
5696;SDS011;2873;50.966;7.210;2022-10-04T22:24:43;10.90;;;5.28;;
5696;SDS011;2873;50.966;7.210;2022-10-04T22:27:11;6.40;;;5.40;;
5696;SDS011;2873;50.966;7.210;2022-10-04T22:29:39;6.90;;;5.50;;
5696;SDS011;2873;50.966;7.210;2022-10-04T22:32:09;6.60;;;5.70;;
5696;SDS011;2873;50.966;7.210;2022-10-04T22:34:41;8.10;;;5.80;;
5696;SDS011;2873;50.966;7.210;2022-10-04T22:37:08;5.60;;;5.10;;
5696;SDS011;2873;50.966;7.210;2022-10-04T22:39:35;7.60;;;5.53;;
5696;SDS011;2873;50.966;7.210;2022-10-04T22:42:01;6.35;;;5.60;;
5696;SDS011;2873;50.966;7.210;2022-10-04T22:44:28;8.15;;;5.75;;
5696;SDS011;2873;50.966;7.210;2022-10-04T22:47:01;6.97;;;5.80;;
5696;SDS011;2873;50.966;7.210;2022-10-04T22:49:33;9.15;;;6.15;;
5696;SDS011;2873;50.966;7.210;2022-10-04T22:52:00;11.98;;;5.50;;
5696;SDS011;2873;50.966;7.210;2022-10-04T22:54:54;8.02;;;5.85;;
5696;SDS011;2873;50.966;7.210;2022-10-04T22:57:22;6.67;;;5.43;;
5696;SDS011;2873;50.966;7.210;2022-10-04T22:59:48;12.15;;;6.07;;
5696;SDS011;2873;50.966;7.210;2022-10-04T23:02:19;9.90;;;5.90;;
5696;SDS011;2873;50.966;7.210;2022-10-04T23:04:57;8.75;;;6.32;;
5696;SDS011;2873;50.966;7.210;2022-10-04T23:07:33;9.23;;;6.55;;
5696;SDS011;2873;50.966;7.210;2022-10-04T23:09:58;7.85;;;5.80;;
5696;SDS011;2873;50.966;7.210;2022-10-04T23:12:24;9.03;;;5.80;;
5696;SDS011;2873;50.966;7.210;2022-10-04T23:14:50;13.30;;;6.50;;
5696;SDS011;2873;50.966;7.210;2022-10-04T23:17:25;13.07;;;6.83;;
5696;SDS011;2873;50.966;7.210;2022-10-04T23:19:55;8.02;;;6.18;;
5696;SDS011;2873;50.966;7.210;2022-10-04T23:22:24;7.60;;;5.80;;
5696;SDS011;2873;50.966;7.210;2022-10-04T23:24:52;12.00;;;6.55;;
5696;SDS011;2873;50.966;7.210;2022-10-04T23:27:19;10.95;;;6.40;;
5696;SDS011;2873;50.966;7.210;2022-10-04T23:29:45;9.65;;;6.65;;
5696;SDS011;2873;50.966;7.210;2022-10-04T23:32:13;11.18;;;6.43;;
5696;SDS011;2873;50.966;7.210;2022-10-04T23:34:41;9.00;;;6.40;;
5696;SDS011;2873;50.966;7.210;2022-10-04T23:37:16;8.98;;;6.50;;
5696;SDS011;2873;50.966;7.210;2022-10-04T23:39:45;9.00;;;6.50;;
5696;SDS011;2873;50.966;7.210;2022-10-04T23:42:14;9.32;;;6.38;;
5696;SDS011;2873;50.966;7.210;2022-10-04T23:44:45;9.40;;;6.35;;
5696;SDS011;2873;50.966;7.210;2022-10-04T23:47:14;9.80;;;6.90;;
5696;SDS011;2873;50.966;7.210;2022-10-04T23:49:48;7.57;;;6.35;;
5696;SDS011;2873;50.966;7.210;2022-10-04T23:52:20;7.47;;;6.30;;
5696;SDS011;2873;50.966;7.210;2022-10-04T23:54:50;10.20;;;7.03;;
5696;SDS011;2873;50.966;7.210;2022-10-04T23:57:21;8.25;;;6.57;;
5696;SDS011;2873;50.966;7.210;2022-10-04T23:59:49;10.40;;;6.80;;
